Time;durP1;ratioP1;P1;durP2;ratioP2;P2;SDS_P1;SDS_P2;PMS_P1;PMS_P2;Temp;Humidity;BMP_temperature;BMP_pressure;BME280_temperature;BME280_humidity;BME280_pressure;Samples;Min_cycle;Max_cycle;Signal;HPM_P1;HPM_P2
2021/09/08 00:01:31;;;;;;;1.40;1.33;;;20.60;63.00;;;;;;4949629;28;20090;-90
2021/09/08 00:03:57;;;;;;;1.30;1.25;;;20.30;61.50;;;;;;4951239;29;20074;-81
2021/09/08 00:06:24;;;;;;;1.17;1.10;;;20.30;61.80;;;;;;4951548;28;20507;-91
2021/09/08 00:08:50;;;;;;;2.33;2.22;;;20.10;61.40;;;;;;4955655;28;20509;-83
2021/09/08 00:11:16;;;;;;;1.10;1.10;;;19.80;62.50;;;;;;4956460;28;20071;-85
2021/09/08 00:13:42;;;;;;;2.00;1.90;;;19.90;62.50;;;;;;4956364;28;20126;-86
2021/09/08 00:16:08;;;;;;;1.30;1.20;;;20.20;61.90;;;;;;4955896;28;20102;-82
2021/09/08 00:18:34;;;;;;;1.75;1.65;;;20.20;61.80;;;;;;4956733;28;20105;-84
2021/09/08 00:21:00;;;;;;;1.10;1.10;;;20.20;61.90;;;;;;4955657;29;20165;-81
2021/09/08 00:23:26;;;;;;;1.45;1.35;;;20.30;61.60;;;;;;4954092;28;20121;-86
2021/09/08 00:25:52;;;;;;;1.48;1.38;;;20.30;62.10;;;;;;4955402;28;20553;-82
2021/09/08 00:28:17;;;;;;;1.20;1.10;;;20.30;61.80;;;;;;4955341;28;20031;-79
2021/09/08 00:30:43;;;;;;;1.23;1.15;;;20.20;61.60;;;;;;4954390;28;20499;-80
2021/09/08 00:33:09;;;;;;;1.52;1.42;;;20.20;61.90;;;;;;4954830;28;20138;-81
2021/09/08 00:35:34;;;;;;;1.70;1.60;;;20.20;62.00;;;;;;4955632;28;20038;-86
2021/09/08 00:38:03;;;;;;;1.40;1.30;;;20.40;62.10;;;;;;4952001;28;20373;-80
2021/09/08 00:40:29;;;;;;;1.40;1.30;;;20.50;61.60;;;;;;4952428;28;20031;-79
2021/09/08 00:42:55;;;;;;;1.48;1.38;;;20.50;62.30;;;;;;4953429;29;20479;-81
2021/09/08 00:45:20;;;;;;;1.30;1.20;;;20.50;62.80;;;;;;4952913;29;20365;-80
2021/09/08 00:47:48;;;;;;;1.13;1.10;;;20.40;62.90;;;;;;4955419;28;20055;-82
2021/09/08 00:50:14;;;;;;;1.30;1.20;;;20.40;63.10;;;;;;4950054;29;20038;-85
2021/09/08 00:52:41;;;;;;;1.05;1.05;;;20.40;62.50;;;;;;4954764;29;20040;-78
2021/09/08 00:55:10;;;;;;;1.10;1.10;;;20.30;63.20;;;;;;4954920;28;20027;-80
2021/09/08 00:57:36;;;;;;;1.10;1.10;;;20.00;63.70;;;;;;4954868;28;20065;-79
2021/09/08 01:00:04;;;;;;;4.43;1.60;;;20.00;63.70;;;;;;4953833;28;20031;-86
2021/09/08 01:02:30;;;;;;;1.10;1.10;;;19.80;64.30;;;;;;4951823;29;20487;-82
2021/09/08 01:04:55;;;;;;;2.00;1.48;;;20.00;64.90;;;;;;4955525;28;20027;-83
2021/09/08 01:07:21;;;;;;;1.95;1.85;;;19.80;64.40;;;;;;4953825;29;20035;-86
2021/09/08 01:09:48;;;;;;;1.33;1.23;;;19.80;64.70;;;;;;4953265;29;20055;-83
2021/09/08 01:12:15;;;;;;;2.20;2.08;;;19.90;65.00;;;;;;4935704;29;20050;-86
2021/09/08 01:14:44;;;;;;;1.40;1.30;;;20.10;64.70;;;;;;4933664;29;20035;-83
2021/09/08 01:17:09;;;;;;;1.15;1.10;;;20.20;64.90;;;;;;4935763;29;20024;-77
2021/09/08 01:19:36;;;;;;;1.30;1.20;;;20.20;65.70;;;;;;4960017;28;20086;-78
2021/09/08 01:22:03;;;;;;;1.55;1.45;;;20.30;66.00;;;;;;4952609;28;20040;-82
2021/09/08 01:24:29;;;;;;;1.20;1.10;;;20.20;64.40;;;;;;4952487;29;20118;-84
2021/09/08 01:26:56;;;;;;;1.00;1.00;;;20.10;64.30;;;;;;4953081;29;20029;-82
2021/09/08 01:29:22;;;;;;;1.30;1.20;;;20.10;64.90;;;;;;4953828;28;20055;-77
2021/09/08 01:31:56;;;;;;;5.00;2.40;;;20.20;65.30;;;;;;4952410;28;20583;-78
2021/09/08 01:34:23;;;;;;;2.85;2.65;;;20.30;65.30;;;;;;4954337;28;20472;-79
2021/09/08 01:36:49;;;;;;;3.80;3.28;;;20.30;65.90;;;;;;4951204;29;20078;-77
2021/09/08 01:39:19;;;;;;;3.03;1.90;;;20.30;65.60;;;;;;4952516;28;20037;-80
2021/09/08 01:41:49;;;;;;;1.83;1.73;;;20.30;66.50;;;;;;4952539;28;20031;-85
2021/09/08 01:44:25;;;;;;;1.10;1.10;;;20.20;67.60;;;;;;4952337;29;20427;-82
2021/09/08 01:46:52;;;;;;;1.15;1.10;;;20.10;68.50;;;;;;4952796;29;20122;-79
2021/09/08 01:49:18;;;;;;;1.10;1.10;;;20.00;69.10;;;;;;4952138;28;20036;-84
2021/09/08 01:51:44;;;;;;;1.52;1.42;;;20.00;69.50;;;;;;4951681;28;20026;-86
2021/09/08 01:54:11;;;;;;;1.60;1.50;;;19.90;69.60;;;;;;4953807;28;20043;-85
2021/09/08 01:56:37;;;;;;;1.20;1.10;;;19.90;69.90;;;;;;4952987;28;20047;-84
2021/09/08 01:59:03;;;;;;;1.13;1.10;;;19.80;70.20;;;;;;4953216;28;20090;-85
2021/09/08 02:01:30;;;;;;;1.30;1.20;;;19.90;70.10;;;;;;4950152;28;20031;-84
2021/09/08 02:03:55;;;;;;;1.30;1.20;;;19.80;69.00;;;;;;4954133;28;20038;-79
2021/09/08 02:06:27;;;;;;;1.40;1.30;;;19.70;67.50;;;;;;4953503;28;20036;-79
2021/09/08 02:08:57;;;;;;;1.10;1.10;;;19.60;67.80;;;;;;4953568;28;20023;-82
2021/09/08 02:11:24;;;;;;;1.50;1.40;;;19.30;66.70;;;;;;4952031;28;20110;-82
2021/09/08 02:13:51;;;;;;;1.30;1.20;;;19.40;67.70;;;;;;4951724;28;20044;-79
2021/09/08 02:16:20;;;;;;;1.10;1.10;;;19.70;68.80;;;;;;4953800;28;20034;-81
2021/09/08 02:18:48;;;;;;;1.75;1.65;;;19.70;70.40;;;;;;4952360;29;20054;-81
2021/09/08 02:21:13;;;;;;;1.65;1.55;;;19.40;68.60;;;;;;4951641;28;20039;-80
2021/09/08 02:23:39;;;;;;;1.30;1.20;;;18.90;67.90;;;;;;4952848;28;20027;-81
2021/09/08 02:26:05;;;;;;;1.63;1.52;;;18.80;68.00;;;;;;4951498;28;20074;-80
2021/09/08 02:28:31;;;;;;;2.30;2.10;;;18.70;68.10;;;;;;4951452;29;20086;-84
2021/09/08 02:30:56;;;;;;;1.98;1.88;;;18.60;68.30;;;;;;4951689;28;20042;-79
2021/09/08 02:33:22;;;;;;;1.40;1.30;;;18.50;68.40;;;;;;4953626;28;20045;-78
2021/09/08 02:35:50;;;;;;;1.50;1.40;;;18.80;68.60;;;;;;4950611;29;20031;-80
2021/09/08 02:38:16;;;;;;;1.83;1.73;;;18.80;68.10;;;;;;4951316;29;20059;-81
2021/09/08 02:40:41;;;;;;;1.45;1.35;;;18.80;67.80;;;;;;4953259;28;20031;-81
2021/09/08 02:43:07;;;;;;;1.40;1.30;;;18.70;68.10;;;;;;4953515;28;20024;-89
2021/09/08 02:45:33;;;;;;;1.52;1.42;;;18.40;68.50;;;;;;4953218;28;20079;-82
2021/09/08 02:47:59;;;;;;;2.13;1.98;;;18.30;69.30;;;;;;4952712;28;20078;-83
2021/09/08 02:50:24;;;;;;;2.22;2.13;;;18.30;70.60;;;;;;4948833;29;20030;-83
2021/09/08 02:52:50;;;;;;;1.50;1.40;;;18.60;70.00;;;;;;4952688;28;20036;-82
2021/09/08 02:55:16;;;;;;;1.50;1.40;;;18.60;69.20;;;;;;4952660;28;20111;-79
2021/09/08 02:57:41;;;;;;;1.50;1.40;;;18.90;69.60;;;;;;4952465;28;20059;-80
2021/09/08 03:00:08;;;;;;;1.40;1.30;;;19.10;69.10;;;;;;4949780;28;20062;-83
2021/09/08 03:02:34;;;;;;;1.50;1.40;;;19.00;68.90;;;;;;4951857;28;20420;-82
2021/09/08 03:05:00;;;;;;;2.05;1.95;;;19.10;69.00;;;;;;4951002;29;20038;-85
2021/09/08 03:07:26;;;;;;;1.48;1.38;;;19.20;69.00;;;;;;4951486;29;20023;-84
2021/09/08 03:09:52;;;;;;;1.40;1.30;;;19.30;68.80;;;;;;4947858;29;20040;-83
2021/09/08 03:12:17;;;;;;;1.40;1.30;;;19.20;69.10;;;;;;4949796;28;20515;-85
2021/09/08 03:14:43;;;;;;;1.50;1.40;;;19.20;69.40;;;;;;4951377;29;20396;-84
2021/09/08 03:17:09;;;;;;;1.70;1.60;;;19.10;69.50;;;;;;4952295;28;20027;-81
2021/09/08 03:19:35;;;;;;;3.17;1.85;;;19.10;69.30;;;;;;4952043;28;20408;-82
2021/09/08 03:22:01;;;;;;;1.40;1.30;;;18.70;71.70;;;;;;4950561;29;20015;-83
2021/09/08 03:24:27;;;;;;;1.50;1.40;;;18.60;72.70;;;;;;4949939;28;20028;-81
2021/09/08 03:26:52;;;;;;;1.50;1.40;;;18.40;73.30;;;;;;4952797;28;20042;-81
2021/09/08 03:29:20;;;;;;;1.60;1.50;;;18.70;72.90;;;;;;4951350;29;20510;-80
2021/09/08 03:31:46;;;;;;;4.43;3.78;;;18.70;73.50;;;;;;4950392;28;20028;-79
2021/09/08 03:34:12;;;;;;;1.50;1.40;;;18.80;74.50;;;;;;4951355;29;20495;-78
2021/09/08 03:36:38;;;;;;;1.50;1.40;;;18.50;74.70;;;;;;4950982;28;20431;-84
2021/09/08 03:39:04;;;;;;;1.88;1.77;;;18.60;73.80;;;;;;4951583;29;20023;-81
2021/09/08 03:41:29;;;;;;;1.50;1.40;;;18.50;72.60;;;;;;4952267;28;20055;-81
2021/09/08 03:43:55;;;;;;;1.60;1.50;;;18.30;72.80;;;;;;4958049;29;20077;-85
2021/09/08 03:46:21;;;;;;;1.70;1.60;;;18.40;73.30;;;;;;4957769;29;20539;-83
2021/09/08 03:48:47;;;;;;;1.60;1.50;;;18.30;72.90;;;;;;4957610;28;20039;-83
2021/09/08 03:51:12;;;;;;;1.40;1.30;;;18.60;72.60;;;;;;4953528;29;20067;-80
2021/09/08 03:53:38;;;;;;;1.50;1.40;;;18.70;71.00;;;;;;4940044;29;20098;-81
2021/09/08 03:56:04;;;;;;;1.40;1.30;;;18.80;70.40;;;;;;4952824;29;20109;-81
2021/09/08 03:58:30;;;;;;;1.52;1.42;;;18.90;70.80;;;;;;4937037;29;20067;-90
2021/09/08 04:00:56;;;;;;;1.88;1.75;;;18.80;70.30;;;;;;4938094;29;20066;-90
2021/09/08 04:03:21;;;;;;;1.40;1.30;;;18.80;69.90;;;;;;4957625;28;20034;-87
2021/09/08 04:05:47;;;;;;;1.70;1.60;;;18.80;69.80;;;;;;4956385;29;20047;-93
2021/09/08 04:08:13;;;;;;;1.50;1.40;;;18.80;69.70;;;;;;4956765;28;20070;-88
2021/09/08 04:10:40;;;;;;;1.50;1.40;;;18.50;70.70;;;;;;4954592;28;20341;-85
2021/09/08 04:13:05;;;;;;;3.70;2.85;;;18.50;70.90;;;;;;4954951;28;20109;-85
2021/09/08 04:15:33;;;;;;;1.60;1.50;;;18.50;71.40;;;;;;4955890;28;20035;-81
2021/09/08 04:17:58;;;;;;;1.52;1.42;;;18.60;72.10;;;;;;4954609;29;20423;-84
2021/09/08 04:20:24;;;;;;;1.40;1.30;;;18.70;71.70;;;;;;4954231;28;20058;-81
2021/09/08 04:22:50;;;;;;;1.58;1.48;;;18.70;71.80;;;;;;4953725;29;20575;-82
2021/09/08 04:25:16;;;;;;;1.40;1.30;;;18.50;71.80;;;;;;4954302;28;20070;-82
2021/09/08 04:27:42;;;;;;;1.40;1.30;;;18.40;72.00;;;;;;4955113;28;20399;-80
2021/09/08 04:30:08;;;;;;;1.50;1.40;;;18.50;71.90;;;;;;4953992;28;20396;-85
2021/09/08 04:32:33;;;;;;;1.80;1.70;;;18.50;72.20;;;;;;4956182;28;20479;-80
2021/09/08 04:34:59;;;;;;;1.50;1.40;;;18.60;71.80;;;;;;4953005;28;20043;-82
2021/09/08 04:37:25;;;;;;;3.05;2.33;;;18.60;72.20;;;;;;4954738;28;20027;-80
2021/09/08 04:39:50;;;;;;;1.50;1.40;;;18.60;71.80;;;;;;4953052;29;20038;-79
2021/09/08 04:42:16;;;;;;;1.50;1.40;;;18.70;72.00;;;;;;4954197;28;20391;-79
2021/09/08 04:44:42;;;;;;;1.50;1.40;;;18.20;72.80;;;;;;4955486;28;20019;-79
2021/09/08 04:47:08;;;;;;;1.50;1.40;;;17.70;74.60;;;;;;4953256;28;20031;-79
2021/09/08 04:49:34;;;;;;;1.88;1.77;;;17.60;75.00;;;;;;4954896;28;20031;-83
2021/09/08 04:51:59;;;;;;;1.88;1.77;;;17.60;75.30;;;;;;4952733;29;20098;-79
2021/09/08 04:54:25;;;;;;;1.80;1.70;;;17.70;75.20;;;;;;4955545;28;20400;-78
2021/09/08 04:56:51;;;;;;;4.60;2.55;;;17.60;73.80;;;;;;4952949;29;20440;-79
2021/09/08 04:59:16;;;;;;;1.63;1.52;;;17.40;75.10;;;;;;4951476;29;20138;-79
2021/09/08 05:01:42;;;;;;;1.50;1.40;;;18.00;75.00;;;;;;4951937;29;20377;-82
2021/09/08 05:04:08;;;;;;;1.60;1.50;;;18.30;74.70;;;;;;4953706;29;20035;-81
2021/09/08 05:06:34;;;;;;;3.30;2.85;;;18.50;74.60;;;;;;4954369;28;20118;-83
2021/09/08 05:09:00;;;;;;;1.50;1.40;;;18.50;73.90;;;;;;4954734;28;20467;-84
2021/09/08 05:11:25;;;;;;;2.53;2.33;;;18.50;73.40;;;;;;4950767;28;20023;-84
2021/09/08 05:13:51;;;;;;;2.08;1.95;;;18.50;73.20;;;;;;4954790;28;20051;-84
2021/09/08 05:16:17;;;;;;;2.00;1.77;;;18.70;72.50;;;;;;4953377;29;20031;-78
2021/09/08 05:18:42;;;;;;;1.35;1.25;;;18.80;72.10;;;;;;4954289;28;20034;-82
2021/09/08 05:21:08;;;;;;;1.50;1.40;;;18.90;72.50;;;;;;4952003;28;20372;-81
2021/09/08 05:23:34;;;;;;;1.50;1.40;;;18.70;72.70;;;;;;4952088;28;20027;-82
2021/09/08 05:26:01;;;;;;;1.30;1.20;;;18.20;74.40;;;;;;4953866;28;20384;-83
2021/09/08 05:28:27;;;;;;;1.63;1.52;;;18.10;75.10;;;;;;4954782;28;20047;-82
2021/09/08 05:30:52;;;;;;;1.40;1.30;;;17.90;76.00;;;;;;4953363;28;20023;-83
2021/09/08 05:33:18;;;;;;;1.63;1.52;;;17.70;76.80;;;;;;4953729;28;20043;-79
2021/09/08 05:35:44;;;;;;;1.50;1.40;;;17.70;76.70;;;;;;4952626;28;20024;-85
2021/09/08 05:38:10;;;;;;;1.83;1.73;;;17.80;76.70;;;;;;4954410;28;20106;-85
2021/09/08 05:40:35;;;;;;;1.40;1.30;;;17.90;76.30;;;;;;4952806;28;20519;-79
2021/09/08 05:43:01;;;;;;;1.63;1.52;;;17.90;75.80;;;;;;4953491;28;20388;-77
2021/09/08 05:45:27;;;;;;;3.15;2.85;;;18.20;75.40;;;;;;4951830;29;20039;-79
2021/09/08 05:47:53;;;;;;;1.55;1.45;;;18.50;74.80;;;;;;4952463;28;20402;-78
2021/09/08 05:50:19;;;;;;;1.40;1.30;;;18.70;74.20;;;;;;4952092;28;20031;-81
2021/09/08 05:52:45;;;;;;;1.63;1.52;;;18.30;74.60;;;;;;4953681;28;20031;-79
2021/09/08 05:55:11;;;;;;;1.30;1.20;;;18.50;75.10;;;;;;4952280;29;20035;-80
2021/09/08 05:57:36;;;;;;;5.70;2.00;;;18.10;74.90;;;;;;4952809;28;20051;-79
2021/09/08 06:00:04;;;;;;;1.60;1.40;;;17.90;74.40;;;;;;4951368;28;20118;-80
2021/09/08 06:02:30;;;;;;;1.45;1.35;;;18.00;74.00;;;;;;4952851;28;20031;-79
2021/09/08 06:04:55;;;;;;;1.83;1.73;;;17.90;74.90;;;;;;4952924;28;20029;-81
2021/09/08 06:07:21;;;;;;;1.70;1.60;;;18.30;74.90;;;;;;4953786;28;20031;-80
2021/09/08 06:09:47;;;;;;;1.73;1.63;;;18.60;74.30;;;;;;4948091;29;20395;-83
2021/09/08 06:12:13;;;;;;;1.40;1.30;;;18.70;73.60;;;;;;4953175;28;20037;-87
2021/09/08 06:14:38;;;;;;;1.48;1.38;;;18.90;73.30;;;;;;4953832;28;20047;-84
2021/09/08 06:17:04;;;;;;;1.55;1.45;;;18.90;72.80;;;;;;4953024;28;20423;-81
2021/09/08 06:19:30;;;;;;;5.88;2.85;;;18.80;72.90;;;;;;4951767;29;20024;-83
2021/09/08 06:21:56;;;;;;;1.95;1.85;;;18.80;73.30;;;;;;4949250;29;20128;-82
2021/09/08 06:24:22;;;;;;;8.57;2.85;;;19.20;72.80;;;;;;4951214;29;20041;-81
2021/09/08 06:26:47;;;;;;;1.40;1.30;;;19.00;73.30;;;;;;4954207;28;20041;-81
2021/09/08 06:29:13;;;;;;;1.30;1.20;;;19.20;73.10;;;;;;4953542;28;20027;-85
2021/09/08 06:31:39;;;;;;;1.10;1.10;;;19.50;73.10;;;;;;4952120;28;20061;-82
2021/09/08 06:34:05;;;;;;;1.30;1.20;;;19.50;72.40;;;;;;4950952;29;20043;-83
2021/09/08 06:36:30;;;;;;;1.30;1.20;;;19.80;73.00;;;;;;4952560;28;20027;-85
2021/09/08 06:38:56;;;;;;;1.42;1.33;;;20.00;73.30;;;;;;4952057;29;20031;-80
2021/09/08 06:41:22;;;;;;;1.00;1.00;;;20.10;72.10;;;;;;4951793;28;20031;-82
2021/09/08 06:43:49;;;;;;;1.40;1.30;;;20.00;71.00;;;;;;4953732;28;20527;-83
2021/09/08 06:46:15;;;;;;;1.30;1.20;;;20.00;70.90;;;;;;4950600;28;20066;-85
2021/09/08 06:48:42;;;;;;;1.40;1.30;;;20.10;70.50;;;;;;4952692;28;20034;-78
2021/09/08 06:51:07;;;;;;;1.20;1.10;;;20.10;71.00;;;;;;4951822;28;20070;-79
2021/09/08 06:53:33;;;;;;;1.45;1.35;;;19.60;70.80;;;;;;4953015;28;20115;-78
2021/09/08 06:55:59;;;;;;;1.40;1.30;;;19.60;71.10;;;;;;4952986;28;20511;-86
2021/09/08 06:58:25;;;;;;;1.00;1.00;;;19.60;71.40;;;;;;4952400;28;20119;-84
2021/09/08 07:00:51;;;;;;;1.48;1.38;;;19.90;71.30;;;;;;4952263;28;20380;-79
2021/09/08 07:03:17;;;;;;;1.10;1.10;;;20.40;70.60;;;;;;4951743;29;20027;-85
2021/09/08 07:05:43;;;;;;;1.30;1.20;;;20.60;70.50;;;;;;4951663;29;20505;-87
2021/09/08 07:08:09;;;;;;;1.63;1.40;;;20.70;70.50;;;;;;4952263;29;20031;-80
2021/09/08 07:10:36;;;;;;;1.73;1.63;;;20.80;71.40;;;;;;4947692;29;20070;-84
2021/09/08 07:13:02;;;;;;;1.00;1.00;;;21.00;71.20;;;;;;4951893;29;20035;-82
2021/09/08 07:15:28;;;;;;;1.20;1.10;;;21.10;71.70;;;;;;4952781;28;20050;-82
2021/09/08 07:17:53;;;;;;;1.23;1.13;;;21.10;72.20;;;;;;4951106;28;20024;-82
2021/09/08 07:20:20;;;;;;;1.42;1.33;;;20.80;72.00;;;;;;4950042;28;20035;-79
2021/09/08 07:22:46;;;;;;;5.03;3.22;;;20.70;72.30;;;;;;4950351;28;20420;-82
2021/09/08 07:25:11;;;;;;;1.30;1.20;;;20.80;72.20;;;;;;4951695;28;20532;-79
2021/09/08 07:27:37;;;;;;;0.90;0.90;;;20.80;71.50;;;;;;4951784;28;20057;-78
2021/09/08 07:30:04;;;;;;;1.00;1.00;;;21.00;71.80;;;;;;4950092;28;20027;-78
2021/09/08 07:32:30;;;;;;;1.58;1.48;;;21.30;71.60;;;;;;4949377;28;20110;-76
2021/09/08 07:34:58;;;;;;;1.13;1.10;;;21.30;71.20;;;;;;4950848;28;20082;-80
2021/09/08 07:37:25;;;;;;;0.90;0.90;;;21.20;70.10;;;;;;4952203;28;20037;-81
2021/09/08 07:39:50;;;;;;;1.30;1.20;;;21.20;70.00;;;;;;4949638;28;20031;-79
2021/09/08 07:42:16;;;;;;;1.63;1.52;;;21.20;70.60;;;;;;4951081;28;20035;-79
2021/09/08 07:44:43;;;;;;;0.90;0.90;;;21.20;70.90;;;;;;4949933;28;20035;-84
2021/09/08 07:47:10;;;;;;;0.90;0.90;;;21.20;70.10;;;;;;4951793;28;20031;-83
2021/09/08 07:49:37;;;;;;;1.33;1.15;;;21.20;70.40;;;;;;4951405;28;20020;-78
2021/09/08 07:52:03;;;;;;;0.90;0.90;;;21.20;70.50;;;;;;4950717;28;20039;-83
2021/09/08 07:54:29;;;;;;;1.85;1.75;;;21.20;70.00;;;;;;4951043;28;20044;-78
2021/09/08 07:56:55;;;;;;;1.10;1.10;;;21.30;70.60;;;;;;4949315;28;20076;-80
2021/09/08 07:59:21;;;;;;;1.20;1.10;;;21.30;70.80;;;;;;4951746;28;20134;-78
2021/09/08 08:01:47;;;;;;;0.82;0.82;;;21.30;70.20;;;;;;4949583;28;20085;-79
2021/09/08 08:04:13;;;;;;;1.00;1.00;;;21.40;73.20;;;;;;4951114;29;20567;-80
2021/09/08 08:06:39;;;;;;;1.88;1.45;;;21.40;71.00;;;;;;4951158;29;20035;-82
2021/09/08 08:09:06;;;;;;;0.80;0.80;;;21.30;71.30;;;;;;4947971;29;20027;-82
2021/09/08 08:11:32;;;;;;;1.20;1.10;;;21.30;71.40;;;;;;4950418;28;20035;-80
2021/09/08 08:13:58;;;;;;;1.00;1.00;;;21.40;71.20;;;;;;4951765;28;20039;-81
2021/09/08 08:16:24;;;;;;;1.02;1.00;;;21.30;71.70;;;;;;4951296;28;20035;-80
2021/09/08 08:18:50;;;;;;;0.90;0.90;;;21.50;72.00;;;;;;4952032;28;20114;-79
2021/09/08 08:21:16;;;;;;;1.00;1.00;;;21.50;71.00;;;;;;4947470;28;20074;-81
2021/09/08 08:23:42;;;;;;;2.20;2.00;;;21.60;71.50;;;;;;4950032;29;20122;-86
2021/09/08 08:26:08;;;;;;;3.53;3.17;;;21.50;70.30;;;;;;4952173;28;20160;-89
2021/09/08 08:28:34;;;;;;;1.48;1.38;;;21.30;70.70;;;;;;4952740;28;20039;-80
2021/09/08 08:31:02;;;;;;;0.80;0.80;;;21.20;71.00;;;;;;4951475;29;20607;-82
2021/09/08 08:33:28;;;;;;;0.90;0.90;;;21.50;71.80;;;;;;4953453;28;20051;-81
2021/09/08 08:35:54;;;;;;;0.80;0.80;;;21.70;70.90;;;;;;4955069;28;20031;-81
2021/09/08 08:38:20;;;;;;;1.02;1.02;;;21.60;70.10;;;;;;4954913;28;20036;-78
2021/09/08 08:40:47;;;;;;;1.17;1.08;;;21.70;70.50;;;;;;4953609;28;20039;-80
2021/09/08 08:43:13;;;;;;;0.90;0.90;;;21.80;70.30;;;;;;4952785;28;20035;-78
2021/09/08 08:45:39;;;;;;;1.38;1.27;;;21.70;70.00;;;;;;4953045;28;20027;-82
2021/09/08 08:48:06;;;;;;;1.02;0.95;;;21.80;70.80;;;;;;4954905;28;20399;-78
2021/09/08 08:50:33;;;;;;;0.80;0.80;;;22.00;69.90;;;;;;4952854;28;20051;-77
2021/09/08 08:52:59;;;;;;;1.33;1.23;;;21.70;70.10;;;;;;4954722;28;20038;-79
2021/09/08 08:55:26;;;;;;;1.13;1.02;;;21.60;69.10;;;;;;4953074;28;20043;-77
2021/09/08 08:57:52;;;;;;;0.80;0.80;;;21.50;68.80;;;;;;4953846;28;20086;-78
2021/09/08 09:00:20;;;;;;;2.13;1.17;;;21.70;69.00;;;;;;4953209;28;20110;-84
2021/09/08 09:02:48;;;;;;;3.47;3.17;;;21.80;69.50;;;;;;4954154;28;20023;-82
2021/09/08 09:05:37;;;;;;;4.43;4.03;;;21.80;68.50;;;;;;4954935;28;20069;-83
2021/09/08 09:08:08;;;;;;;3.53;2.45;;;22.00;69.20;;;;;;4951749;28;20060;-80
2021/09/08 09:10:38;;;;;;;1.52;1.42;;;22.20;68.70;;;;;;4951935;28;20027;-79
2021/09/08 09:13:05;;;;;;;0.75;0.75;;;22.00;67.40;;;;;;4954008;28;20039;-87
2021/09/08 09:15:31;;;;;;;2.45;2.25;;;22.00;68.70;;;;;;4952418;28;20037;-84
2021/09/08 09:17:57;;;;;;;0.95;0.95;;;21.90;69.20;;;;;;4953494;28;20027;-86
2021/09/08 09:20:26;;;;;;;0.90;0.90;;;21.90;69.30;;;;;;4949121;28;20023;-84
2021/09/08 09:22:57;;;;;;;0.90;0.90;;;22.10;68.30;;;;;;4953246;29;20023;-82
2021/09/08 09:25:26;;;;;;;0.80;0.80;;;22.20;68.10;;;;;;4952725;28;20086;-84
2021/09/08 09:27:55;;;;;;;1.90;1.80;;;22.20;67.90;;;;;;4952717;28;20043;-86
2021/09/08 09:30:27;;;;;;;1.40;1.30;;;22.10;68.20;;;;;;4951575;28;20543;-80
2021/09/08 09:32:54;;;;;;;1.98;1.25;;;22.30;68.20;;;;;;4952333;28;20046;-79
2021/09/08 09:35:25;;;;;;;1.45;1.35;;;22.20;67.00;;;;;;4954079;28;20058;-79
2021/09/08 09:37:56;;;;;;;1.27;1.17;;;22.00;67.60;;;;;;5248920;23;20051;-78
2021/09/08 09:40:29;;;;;;;1.40;1.20;;;22.10;67.30;;;;;;4957829;28;20023;-78
2021/09/08 09:43:01;;;;;;;3.50;3.20;;;22.10;67.70;;;;;;4964225;28;20023;-78
2021/09/08 09:45:33;;;;;;;2.58;2.38;;;22.30;67.60;;;;;;4971367;28;20023;-78
2021/09/08 09:48:01;;;;;;;1.35;1.25;;;22.30;68.00;;;;;;4972617;28;20504;-78
2021/09/08 09:50:27;;;;;;;1.33;1.23;;;22.40;67.70;;;;;;4970811;28;20069;-78
2021/09/08 09:52:54;;;;;;;0.98;0.98;;;22.40;67.40;;;;;;4972506;28;20605;-77
2021/09/08 09:55:23;;;;;;;0.80;0.80;;;22.20;66.80;;;;;;4966125;28;20080;-76
2021/09/08 09:57:50;;;;;;;0.80;0.80;;;22.20;67.20;;;;;;4953226;28;20170;-78
2021/09/08 10:00:17;;;;;;;0.88;0.88;;;22.20;67.70;;;;;;4954115;28;20038;-78
2021/09/08 10:02:44;;;;;;;0.80;0.80;;;22.20;68.30;;;;;;4971492;28;20631;-76
2021/09/08 10:05:11;;;;;;;1.20;1.15;;;22.20;67.70;;;;;;4955178;28;20065;-80
2021/09/08 10:07:38;;;;;;;0.80;0.80;;;22.10;68.40;;;;;;4948653;28;20050;-80
2021/09/08 10:10:27;;;;;;;0.80;0.80;;;22.20;67.70;;;;;;4951973;28;20406;-80
2021/09/08 10:12:59;;;;;;;0.80;0.80;;;22.10;66.90;;;;;;4952962;29;20107;-79
2021/09/08 10:15:27;;;;;;;0.95;0.95;;;22.00;66.90;;;;;;4952268;28;20118;-78
2021/09/08 10:17:52;;;;;;;0.80;0.80;;;22.10;67.30;;;;;;4951810;29;20027;-79
2021/09/08 10:20:21;;;;;;;1.33;1.23;;;22.20;67.70;;;;;;4961943;28;20039;-78
2021/09/08 10:22:48;;;;;;;3.05;2.30;;;22.10;65.70;;;;;;4971499;28;20035;-79
2021/09/08 10:25:20;;;;;;;3.35;1.55;;;22.10;65.90;;;;;;4970476;28;20291;-78
2021/09/08 10:27:51;;;;;;;1.65;1.45;;;22.10;65.00;;;;;;4971121;28;20027;-81
2021/09/08 10:30:18;;;;;;;2.80;2.53;;;22.10;65.30;;;;;;4968547;28;20066;-78
2021/09/08 10:32:45;;;;;;;1.40;1.30;;;22.10;65.40;;;;;;4970627;28;20026;-78
2021/09/08 10:35:17;;;;;;;0.90;0.90;;;22.10;65.50;;;;;;4970281;28;20118;-82
2021/09/08 10:37:48;;;;;;;1.02;1.00;;;22.00;64.90;;;;;;4966333;28;20055;-77
2021/09/08 10:40:20;;;;;;;0.85;0.85;;;22.10;65.50;;;;;;4950987;29;20067;-80
2021/09/08 10:43:00;;;;;;;0.90;0.90;;;22.10;65.80;;;;;;4951765;29;20061;-80
2021/09/08 10:45:31;;;;;;;1.20;1.10;;;22.20;66.00;;;;;;4946791;28;20147;-81
2021/09/08 10:48:02;;;;;;;0.82;0.82;;;22.10;65.40;;;;;;4932975;29;20231;-82
2021/09/08 10:50:41;;;;;;;;;;;22.10;64.80;;;;;;4940783;28;20023;-80
2021/09/08 10:53:24;;;;;;;1.75;1.65;;;22.20;65.00;;;;;;4937404;29;19981;-80
2021/09/08 10:55:52;;;;;;;1.13;1.05;;;22.20;65.40;;;;;;4932735;29;20028;-80
2021/09/08 10:58:19;;;;;;;1.38;1.27;;;22.20;65.40;;;;;;4933643;29;20391;-82
2021/09/08 11:00:46;;;;;;;0.80;0.80;;;22.50;64.90;;;;;;4933454;29;20071;-82
2021/09/08 11:03:15;;;;;;;1.73;1.63;;;22.40;64.00;;;;;;4933218;29;20075;-82
2021/09/08 11:05:49;;;;;;;0.80;0.80;;;22.30;64.90;;;;;;4931962;29;20035;-80
2021/09/08 11:08:29;;;;;;;1.20;1.10;;;22.20;64.60;;;;;;4933380;29;20031;-81
2021/09/08 11:11:12;;;;;;;0.70;0.70;;;21.90;64.80;;;;;;4933239;29;20086;-81
2021/09/08 11:13:39;;;;;;;0.85;0.85;;;22.00;64.20;;;;;;4933050;29;20035;-82
2021/09/08 11:16:22;;;;;;;1.20;1.10;;;22.10;65.50;;;;;;4932962;29;20038;-80
2021/09/08 11:18:49;;;;;;;0.70;0.70;;;22.30;65.50;;;;;;4933623;29;20083;-80
2021/09/08 11:21:16;;;;;;;0.80;0.80;;;22.30;65.40;;;;;;4944749;29;20692;-81
2021/09/08 11:23:43;;;;;;;1.33;1.23;;;22.50;65.50;;;;;;4951524;28;20374;-80
2021/09/08 11:26:11;;;;;;;1.45;1.35;;;22.70;64.90;;;;;;4951613;28;20035;-83
2021/09/08 11:28:38;;;;;;;0.77;0.77;;;22.80;64.70;;;;;;4952711;28;20108;-81
2021/09/08 11:31:14;;;;;;;0.80;0.80;;;22.70;64.00;;;;;;4952601;28;20086;-80
2021/09/08 11:33:40;;;;;;;0.93;0.93;;;22.70;63.90;;;;;;4951254;29;20073;-84
2021/09/08 11:36:27;;;;;;;1.15;1.10;;;22.60;64.90;;;;;;4943297;28;20028;-80
2021/09/08 11:38:57;;;;;;;0.80;0.80;;;22.60;64.20;;;;;;4931688;29;20056;-79
2021/09/08 11:41:24;;;;;;;0.70;0.70;;;22.70;63.40;;;;;;4942955;29;20062;-79
2021/09/08 11:43:52;;;;;;;1.05;0.95;;;22.70;64.00;;;;;;4940610;28;20062;-79
2021/09/08 11:46:22;;;;;;;1.20;1.15;;;22.90;64.50;;;;;;4942672;29;20028;-78
2021/09/08 11:48:54;;;;;;;0.75;0.75;;;23.00;64.00;;;;;;4938496;29;20031;-82
2021/09/08 11:51:25;;;;;;;0.80;0.80;;;23.00;64.50;;;;;;4937398;29;20031;-79
2021/09/08 11:53:55;;;;;;;1.20;1.10;;;23.30;65.10;;;;;;4942107;29;20039;-79
2021/09/08 11:56:25;;;;;;;0.82;0.82;;;23.40;65.00;;;;;;4943446;28;20019;-82
2021/09/08 11:58:54;;;;;;;4.43;2.53;;;23.20;62.90;;;;;;4937073;29;20043;-80
2021/09/08 12:01:20;;;;;;;9.82;4.70;;;23.30;63.50;;;;;;4932082;29;20023;-81
2021/09/08 12:03:50;;;;;;;2.85;2.22;;;23.40;63.20;;;;;;4942913;29;20414;-81
2021/09/08 12:06:20;;;;;;;2.67;2.42;;;23.20;63.70;;;;;;4942719;29;20123;-85
2021/09/08 12:08:52;;;;;;;2.10;1.87;;;23.20;64.10;;;;;;4935636;29;20048;-81
2021/09/08 12:11:33;;;;;;;1.30;1.20;;;23.30;64.60;;;;;;4936370;29;20032;-81
2021/09/08 12:14:15;;;;;;;0.77;0.77;;;23.40;66.30;;;;;;4936098;29;20462;-79
2021/09/08 12:16:41;;;;;;;0.90;0.90;;;23.50;65.40;;;;;;4936172;29;20083;-80
2021/09/08 12:19:34;;;;;;;0.82;0.82;;;23.40;64.40;;;;;;4936531;29;20031;-78
2021/09/08 12:22:08;;;;;;;0.70;0.70;;;23.40;65.50;;;;;;4944778;29;20399;-80
2021/09/08 12:24:39;;;;;;;1.00;1.00;;;23.60;65.70;;;;;;4950826;29;20471;-83
2021/09/08 12:27:27;;;;;;;2.88;1.77;;;23.50;63.90;;;;;;4936336;29;20031;-84
2021/09/08 12:29:55;;;;;;;2.22;2.03;;;23.20;63.50;;;;;;4934731;29;20554;-81
2021/09/08 12:32:21;;;;;;;1.40;1.30;;;23.10;64.70;;;;;;4934866;29;20118;-80
2021/09/08 12:34:50;;;;;;;0.80;0.80;;;23.20;62.90;;;;;;4935462;29;20118;-87
2021/09/08 12:37:17;;;;;;;0.70;0.70;;;23.30;64.10;;;;;;4934662;29;20130;-81
2021/09/08 12:39:45;;;;;;;0.85;0.85;;;23.50;64.20;;;;;;4934568;29;20480;-81
2021/09/08 12:42:25;;;;;;;0.80;0.80;;;23.20;63.10;;;;;;4934191;29;20040;-81
2021/09/08 12:45:06;;;;;;;0.75;0.75;;;23.20;65.00;;;;;;4935644;29;20050;-78
2021/09/08 12:47:32;;;;;;;1.52;1.35;;;23.40;63.60;;;;;;4953823;29;20027;-80
2021/09/08 12:49:58;;;;;;;0.77;0.77;;;23.50;63.90;;;;;;4944823;29;20054;-80